Time;durP1;ratioP1;P1;durP2;ratioP2;P2;SDS_P1;SDS_P2;PMS_P1;PMS_P2;Temp;Humidity;BMP_temperature;BMP_pressure;BME280_temperature;BME280_humidity;BME280_pressure;Samples;Min_cycle;Max_cycle;Signal;HPM_P1;HPM_P2
2022/06/13 00:00:57;;;;;;;;;;;9.10;99.90;;;;;;5007050;28;19906;-70
2022/06/13 00:03:24;;;;;;;;;;;9.10;99.90;;;;;;5005055;28;20374;-70
2022/06/13 00:05:51;;;;;;;;;;;9.20;99.90;;;;;;4997075;28;19948;-71
2022/06/13 00:08:17;;;;;;;;;;;9.20;99.90;;;;;;4997310;28;19920;-71
2022/06/13 00:10:44;;;;;;;;;;;9.20;99.90;;;;;;4997453;28;20008;-71
2022/06/13 00:13:11;;;;;;;;;;;9.30;99.90;;;;;;4997438;28;19906;-71
2022/06/13 00:15:38;;;;;;;;;;;9.30;99.90;;;;;;4997088;28;19914;-71
2022/06/13 00:18:05;;;;;;;;;;;9.30;99.90;;;;;;4997498;28;19912;-71
2022/06/13 00:20:32;;;;;;;;;;;9.30;99.90;;;;;;4997300;28;19961;-71
2022/06/13 00:22:59;;;;;;;;;;;9.40;99.90;;;;;;4997238;28;19992;-71
2022/06/13 00:25:26;;;;;;;;;;;9.40;99.90;;;;;;4996953;28;19906;-71
2022/06/13 00:27:53;;;;;;;;;;;9.50;99.90;;;;;;4996993;28;19910;-71
2022/06/13 00:30:20;;;;;;;;;;;9.80;99.90;;;;;;4997105;28;19909;-71
2022/06/13 00:32:47;;;;;;;;;;;9.90;99.90;;;;;;4997183;28;20009;-71
2022/06/13 00:35:14;;;;;;;;;;;10.00;99.90;;;;;;4997155;28;19906;-71
2022/06/13 00:37:41;;;;;;;;;;;10.00;99.90;;;;;;5004332;28;19918;-70
2022/06/13 00:40:09;;;;;;;;;;;10.00;99.90;;;;;;5007168;28;19921;-72
2022/06/13 00:42:37;;;;;;;;;;;10.00;99.90;;;;;;5006132;28;19906;-71
2022/06/13 00:45:09;;;;;;;;;;;10.10;99.90;;;;;;5004831;28;19906;-71
2022/06/13 00:47:40;;;;;;;;;;;10.30;99.90;;;;;;5020888;28;20421;-71
2022/06/13 00:50:09;;;;;;;;;;;10.40;99.90;;;;;;5001593;28;20108;-71
2022/06/13 00:52:39;;;;;;;;;;;10.40;99.90;;;;;;4996602;28;19906;-71
2022/06/13 00:55:08;;;;;;;;;;;10.40;99.90;;;;;;4996758;28;20329;-72
2022/06/13 00:57:35;;;;;;;;;;;10.50;99.90;;;;;;4995038;28;19906;-72
2022/06/13 01:00:05;;;;;;;;;;;10.60;99.90;;;;;;4996239;28;20330;-74
2022/06/13 01:02:32;;;;;;;;;;;10.60;99.90;;;;;;4995292;28;19906;-72
2022/06/13 01:04:59;;;;;;;;;;;10.70;99.90;;;;;;4996226;28;20005;-72
2022/06/13 01:07:27;;;;;;;;;;;10.70;99.90;;;;;;4996146;28;20370;-72
2022/06/13 01:12:39;;;;;;;;;;;10.80;99.90;;;;;;4996693;28;19956;-74
2022/06/13 01:15:07;;;;;;;;;;;10.80;99.90;;;;;;4996311;28;19906;-72
2022/06/13 01:17:48;;;;;;;;;;;10.80;99.90;;;;;;4996254;28;19952;-71
2022/06/13 01:20:24;;;;;;;;;;;10.80;99.90;;;;;;4996595;28;19912;-72
2022/06/13 01:22:51;;;;;;;;;;;10.90;99.90;;;;;;4996351;28;19948;-71
2022/06/13 01:25:24;;;;;;;;;;;10.90;99.90;;;;;;4996154;28;20393;-72
2022/06/13 01:28:01;;;;;;;;;;;10.90;99.90;;;;;;4996190;28;19906;-72
2022/06/13 01:30:40;;;;;;;;;;;10.90;99.90;;;;;;4996351;28;19936;-74
2022/06/13 01:33:14;;;;;;;;;;;10.80;99.90;;;;;;4996119;28;19916;-72
2022/06/13 01:35:41;;;;;;;;;;;10.80;99.90;;;;;;4996033;28;19913;-72
2022/06/13 01:38:20;;;;;;;;;;;10.90;99.90;;;;;;4996028;28;19909;-74
2022/06/13 01:41:01;;;;;;;;;;;11.10;99.90;;;;;;4996610;28;20277;-75
2022/06/13 01:43:28;;;;;;;;;;;11.10;99.90;;;;;;4994754;28;19913;-70
2022/06/13 01:45:55;;;;;;;;;;;11.30;99.90;;;;;;4995373;28;19913;-72
2022/06/13 01:48:24;;;;;;;;;;;11.30;99.90;;;;;;4993389;28;19906;-72
2022/06/13 01:51:09;;;;;;;;;;;11.30;99.90;;;;;;4995685;28;19920;-73
2022/06/13 01:53:50;;;;;;;;;;;11.30;99.90;;;;;;4995373;28;20247;-72
2022/06/13 01:56:20;;;;;;;;;;;11.20;99.90;;;;;;5003220;28;19968;-72
2022/06/13 01:58:46;;;;;;;;;;;11.20;99.90;;;;;;5004228;28;19905;-72
2022/06/13 02:01:16;;;;;;;;;;;11.20;99.90;;;;;;5004274;28;19916;-73
2022/06/13 02:03:49;;;;;;;;;;;11.20;99.90;;;;;;5003645;28;19992;-74
2022/06/13 02:06:21;;;;;;;;;;;11.30;99.90;;;;;;4997351;28;20251;-73
2022/06/13 02:08:50;;;;;;;;;;;11.40;99.90;;;;;;4995200;28;19910;-71
2022/06/13 02:11:23;;;;;;;;;;;11.50;99.90;;;;;;4994864;28;19920;-71
2022/06/13 02:13:53;;;;;;;;;;;11.60;99.90;;;;;;4994986;28;19914;-71
2022/06/13 02:16:22;;;;;;;;;;;11.60;99.90;;;;;;5001404;28;19915;-71
2022/06/13 02:19:03;;;;;;;;;;;11.70;99.90;;;;;;5012838;28;20310;-71
2022/06/13 02:21:36;;;;;;;;;;;11.80;99.90;;;;;;5012358;28;19905;-71
2022/06/13 02:24:05;;;;;;;;;;;11.80;99.90;;;;;;5009833;28;19906;-71
2022/06/13 02:26:34;;;;;;;;;;;11.90;99.90;;;;;;5011216;28;19912;-71
2022/06/13 02:29:08;;;;;;;;;;;12.00;99.90;;;;;;5009326;28;20396;-71
2022/06/13 02:31:47;;;;;;;;;;;12.10;99.90;;;;;;5004163;28;20409;-71
2022/06/13 02:34:20;;;;;;;;;;;12.10;99.90;;;;;;5013222;28;20346;-71
2022/06/13 02:36:52;;;;;;;;;;;12.00;99.90;;;;;;5005966;28;19909;-71
2022/06/13 02:39:19;;;;;;;;;;;11.90;99.90;;;;;;5000842;28;20381;-71
2022/06/13 02:41:54;;;;;;;;;;;11.80;99.90;;;;;;5004608;28;20019;-71
2022/06/13 02:44:26;;;;;;;;;;;11.70;99.90;;;;;;5001509;28;19905;-71
2022/06/13 02:46:56;;;;;;;;;;;11.70;99.90;;;;;;5005530;28;19920;-71
2022/06/13 02:49:44;;;;;;;;;;;11.70;99.90;;;;;;5012042;28;19953;-71
2022/06/13 02:52:14;;;;;;;;;;;11.90;99.90;;;;;;5012386;28;20338;-71
2022/06/13 02:54:50;;;;;;;;;;;12.00;99.90;;;;;;5012048;28;20347;-73
2022/06/13 02:57:34;;;;;;;;;;;12.10;99.90;;;;;;5011492;28;19931;-71
2022/06/13 03:00:07;;;;;;;;;;;12.10;99.90;;;;;;5013605;28;19968;-71
2022/06/13 03:02:57;;;;;;;;;;;12.20;99.90;;;;;;5014294;28;19906;-71
2022/06/13 03:05:42;;;;;;;;;;;12.20;99.90;;;;;;5013477;28;19940;-71
2022/06/13 03:08:15;;;;;;;;;;;12.20;99.90;;;;;;5010668;28;19920;-71
2022/06/13 03:11:00;;;;;;;;;;;12.10;99.90;;;;;;5012261;28;19924;-71
2022/06/13 03:13:26;;;;;;;;;;;12.10;99.90;;;;;;5008198;28;19910;-71
2022/06/13 03:15:56;;;;;;;;;;;12.10;99.90;;;;;;5007136;28;19913;-71
2022/06/13 03:18:28;;;;;;;;;;;12.10;99.90;;;;;;5013863;28;20358;-71
2022/06/13 03:21:13;;;;;;;;;;;12.20;99.90;;;;;;5013731;28;19952;-71
2022/06/13 03:23:44;;;;;;;;;;;12.30;99.90;;;;;;5013623;28;20313;-71
2022/06/13 03:26:15;;;;;;;;;;;12.30;99.90;;;;;;5013671;28;19913;-71
2022/06/13 03:28:59;;;;;;;;;;;12.30;99.90;;;;;;5013752;28;19906;-71
2022/06/13 03:31:38;;;;;;;;;;;12.30;99.90;;;;;;5013684;28;19917;-71
2022/06/13 03:34:13;;;;;;;;;;;12.40;99.90;;;;;;5013704;28;19905;-71
2022/06/13 03:36:43;;;;;;;;;;;12.40;99.90;;;;;;5010318;28;19913;-71
2022/06/13 03:39:10;;;;;;;;;;;12.40;99.90;;;;;;4993219;28;20000;-71
2022/06/13 03:41:41;;;;;;;;;;;12.50;99.90;;;;;;5012390;28;19945;-71
2022/06/13 03:44:25;;;;;;;;;;;12.60;99.90;;;;;;5013549;28;19905;-70
2022/06/13 03:47:06;;;;;;;;;;;12.60;99.90;;;;;;5012193;28;20247;-75
2022/06/13 03:49:41;;;;;;;;;;;12.70;99.90;;;;;;5013827;28;19905;-71
2022/06/13 03:52:10;;;;;;;;;;;12.80;99.90;;;;;;5013927;28;20281;-72
2022/06/13 03:54:42;;;;;;;;;;;12.80;99.90;;;;;;5013511;28;19905;-72
2022/06/13 03:57:24;;;;;;;;;;;12.70;99.90;;;;;;5013401;28;19906;-73
2022/06/13 03:59:54;;;;;;;;;;;12.60;99.90;;;;;;5013627;28;19913;-72
2022/06/13 04:02:25;;;;;;;;;;;12.50;99.90;;;;;;5013588;28;19905;-73
2022/06/13 04:04:53;;;;;;;;;;;12.50;99.90;;;;;;5007236;28;19917;-75
2022/06/13 04:07:21;;;;;;;;;;;12.50;99.90;;;;;;5001584;28;19918;-75
2022/06/13 04:09:49;;;;;;;;;;;12.40;99.90;;;;;;5006318;28;19906;-71
2022/06/13 04:12:18;;;;;;;;;;;12.40;99.90;;;;;;5007709;28;19909;-70
2022/06/13 04:14:54;;;;;;;;;;;12.50;99.90;;;;;;5006196;28;19906;-71
2022/06/13 04:17:21;;;;;;;;;;;12.50;99.90;;;;;;5005731;28;19906;-71
2022/06/13 04:20:03;;;;;;;;;;;12.40;99.90;;;;;;5006942;28;19909;-72
2022/06/13 04:22:48;;;;;;;;;;;12.40;99.90;;;;;;5012267;28;19905;-72
2022/06/13 04:25:34;;;;;;;;;;;12.40;99.90;;;;;;5010855;28;20366;-74
2022/06/13 04:28:04;;;;;;;;;;;12.40;99.90;;;;;;4994896;28;19910;-72
2022/06/13 04:30:32;;;;;;;;;;;12.30;99.90;;;;;;5006296;28;19909;-72
2022/06/13 04:33:02;;;;;;;;;;;12.30;99.90;;;;;;5005343;28;20374;-72
2022/06/13 04:35:30;;;;;;;;;;;12.30;99.90;;;;;;5007207;28;19906;-73
2022/06/13 04:37:58;;;;;;;;;;;12.40;99.90;;;;;;5005198;28;20351;-73
2022/06/13 04:40:26;;;;;;;;;;;12.40;99.90;;;;;;5015673;28;20322;-77
2022/06/13 04:42:54;;;;;;;;;;;12.50;99.90;;;;;;5016591;28;19917;-71
2022/06/13 04:45:25;;;;;;;;;;;12.50;99.90;;;;;;5016467;28;20270;-72
2022/06/13 04:47:56;;;;;;;;;;;12.50;99.90;;;;;;5016678;28;19910;-70
2022/06/13 04:50:33;;;;;;;;;;;12.50;99.90;;;;;;5014729;28;19917;-74
2022/06/13 04:53:00;;;;;;;;;;;12.40;99.90;;;;;;5016288;28;19971;-71
2022/06/13 04:55:50;;;;;;;;;;;12.40;99.90;;;;;;5016354;28;19913;-72
2022/06/13 04:58:33;;;;;;;;;;;12.30;99.90;;;;;;5013314;28;19905;-71
2022/06/13 05:01:23;;;;;;;;;;;12.20;99.90;;;;;;5016145;28;19905;-70
2022/06/13 05:03:50;;;;;;;;;;;12.20;99.90;;;;;;5009592;28;19905;-71
2022/06/13 05:06:28;;;;;;;;;;;12.20;99.90;;;;;;5015796;28;20389;-73
2022/06/13 05:09:05;;;;;;;;;;;12.20;99.90;;;;;;5016069;28;20408;-72
2022/06/13 05:11:52;;;;;;;;;;;12.30;99.90;;;;;;5016218;28;20362;-71
2022/06/13 05:14:22;;;;;;;;;;;12.30;99.90;;;;;;5012116;28;19906;-71
2022/06/13 05:17:07;;;;;;;;;;;12.20;99.90;;;;;;5015954;28;20277;-78
2022/06/13 05:19:36;;;;;;;;;;;12.10;99.90;;;;;;5014920;28;19912;-71
2022/06/13 05:22:09;;;;;;;;;;;12.10;99.90;;;;;;5015904;28;20371;-71
2022/06/13 05:24:47;;;;;;;;;;;12.10;99.90;;;;;;5015787;28;19937;-71
2022/06/13 05:27:14;;;;;;;;;;;12.00;99.90;;;;;;5016125;28;19905;-72
2022/06/13 05:29:41;;;;;;;;;;;12.00;99.90;;;;;;5015883;28;19905;-72
2022/06/13 05:32:08;;;;;;;;;;;12.00;99.90;;;;;;5015721;28;19909;-71
2022/06/13 05:34:37;;;;;;;;;;;12.00;99.90;;;;;;5001075;28;19905;-74
2022/06/13 05:37:04;;;;;;;;;;;12.00;99.90;;;;;;5010736;28;19941;-75
2022/06/13 05:39:31;;;;;;;;;;;12.00;99.90;;;;;;5015243;28;19912;-73
2022/06/13 05:41:58;;;;;;;;;;;11.90;99.90;;;;;;5015458;28;19955;-69
2022/06/13 05:44:25;;;;;;;;;;;12.00;99.90;;;;;;5015408;28;19905;-70
2022/06/13 05:46:52;;;;;;;;;;;11.90;99.90;;;;;;5013540;28;20326;-73
2022/06/13 05:49:19;;;;;;;;;;;11.90;99.90;;;;;;5015337;28;19912;-75
2022/06/13 05:51:46;;;;;;;;;;;11.90;99.90;;;;;;5015070;28;20004;-82
2022/06/13 05:54:14;;;;;;;;;;;11.90;99.90;;;;;;5015184;28;19906;-76
2022/06/13 05:56:41;;;;;;;;;;;11.90;99.90;;;;;;5014533;28;19906;-71
2022/06/13 05:59:09;;;;;;;;;;;11.80;99.90;;;;;;5013684;28;20541;-73
2022/06/13 06:01:36;;;;;;;;;;;11.80;99.90;;;;;;5014641;28;19909;-74
2022/06/13 06:04:03;;;;;;;;;;;11.80;99.90;;;;;;5007015;28;19913;-71
2022/06/13 06:06:31;;;;;;;;;;;11.80;99.90;;;;;;4995195;28;20259;-71
2022/06/13 06:08:59;;;;;;;;;;;11.80;99.90;;;;;;4995552;28;20361;-71
2022/06/13 06:11:27;;;;;;;;;;;11.80;99.90;;;;;;4995310;28;19913;-71
2022/06/13 06:13:54;;;;;;;;;;;11.80;99.90;;;;;;4995399;28;19906;-71
2022/06/13 06:16:22;;;;;;;;;;;11.80;99.90;;;;;;4994599;28;19905;-71
2022/06/13 06:18:49;;;;;;;;;;;11.80;99.90;;;;;;4993156;28;20041;-70
2022/06/13 06:21:16;;;;;;;;;;;11.80;99.90;;;;;;4993111;28;19906;-71
2022/06/13 06:23:42;;;;;;;;;;;11.80;99.90;;;;;;4993252;28;19906;-71
2022/06/13 06:26:11;;;;;;;;;;;11.80;99.90;;;;;;4993272;28;19905;-69
2022/06/13 06:28:38;;;;;;;;;;;11.80;99.90;;;;;;4993495;28;19912;-76
2022/06/13 06:31:05;;;;;;;;;;;11.80;99.90;;;;;;4993092;28;19920;-71
2022/06/13 06:33:32;;;;;;;;;;;11.70;99.90;;;;;;4994899;28;19906;-70
2022/06/13 06:35:59;;;;;;;;;;;11.70;99.90;;;;;;4993670;28;19906;-72
2022/06/13 06:38:27;;;;;;;;;;;11.70;99.90;;;;;;4994824;28;19912;-71
2022/06/13 06:40:53;;;;;;;;;;;11.60;99.90;;;;;;4994850;28;20338;-71
2022/06/13 06:43:21;;;;;;;;;;;11.60;99.90;;;;;;4994681;28;19912;-76
2022/06/13 06:45:48;;;;;;;;;;;11.60;99.90;;;;;;4993488;28;20000;-74
2022/06/13 06:48:16;;;;;;;;;;;11.60;99.90;;;;;;4994753;28;19988;-75
2022/06/13 06:50:44;;;;;;;;;;;11.50;99.90;;;;;;4994846;28;19914;-74
2022/06/13 06:53:13;;;;;;;;;;;11.50;99.90;;;;;;4994599;28;19906;-70
2022/06/13 07:01:12;;;;;;;;;;;11.40;99.90;;;;;;4995096;28;19960;-73
2022/06/13 07:03:40;;;;;;;;;;;11.40;99.90;;;;;;4994400;28;20359;-71
2022/06/13 07:06:07;;;;;;;;;;;11.30;99.90;;;;;;4994313;28;19918;-71
2022/06/13 07:08:35;;;;;;;;;;;11.30;99.90;;;;;;4994354;28;19993;-71
2022/06/13 07:14:08;;;;;;;;;;;11.10;99.90;;;;;;4934588;29;20010;-70
2022/06/13 07:16:37;;;;;;;;;;;11.00;99.90;;;;;;4934484;29;19907;-74
2022/06/13 07:19:04;;;;;;;;;;;11.00;99.90;;;;;;4964179;28;19906;-73
2022/06/13 07:21:31;;;;;;;;;;;10.90;99.90;;;;;;4994484;28;19945;-70
2022/06/13 07:23:58;;;;;;;;;;;10.90;99.90;;;;;;4994431;28;20004;-71
2022/06/13 07:26:25;;;;;;;;;;;10.90;99.90;;;;;;4994015;28;20397;-71
2022/06/13 07:28:52;;;;;;;;;;;10.80;99.90;;;;;;4994234;28;19906;-71
2022/06/13 07:31:20;;;;;;;;;;;10.80;99.90;;;;;;4994078;28;19962;-72
2022/06/13 07:33:48;;;;;;;;;;;10.70;99.90;;;;;;4994327;28;20262;-71
2022/06/13 07:36:15;;;;;;;;;;;10.70;99.90;;;;;;4994404;28;19905;-70
2022/06/13 07:38:42;;;;;;;;;;;10.60;99.90;;;;;;4994302;28;19905;-70
2022/06/13 07:41:11;;;;;;;;;;;10.60;99.90;;;;;;4994366;28;19925;-71
2022/06/13 07:43:43;;;;;;;;;;;10.50;99.90;;;;;;4995930;28;19912;-70
2022/06/13 07:46:10;;;;;;;;;;;10.50;99.90;;;;;;4998046;28;19949;-71
2022/06/13 07:48:37;;;;;;;;;;;10.40;99.90;;;;;;4998208;28;19921;-71
2022/06/13 07:51:05;;;;;;;;;;;10.40;99.90;;;;;;4997900;28;19960;-69
2022/06/13 07:53:32;;;;;;;;;;;10.30;99.90;;;;;;4998254;28;19906;-71
2022/06/13 07:55:59;;;;;;;;;;;10.30;99.90;;;;;;4997830;28;19913;-69
2022/06/13 07:58:31;;;;;;;;;;;10.30;99.90;;;;;;4998011;28;19932;-70
2022/06/13 08:00:58;;;;;;;;;;;10.30;99.90;;;;;;4997928;28;20032;-70
2022/06/13 08:03:27;;;;;;;;;;;10.20;99.90;;;;;;4998013;28;19906;-75
2022/06/13 08:05:54;;;;;;;;;;;10.20;99.90;;;;;;4996145;28;19913;-72
2022/06/13 08:08:21;;;;;;;;;;;10.20;99.90;;;;;;4997708;28;19912;-74
2022/06/13 08:10:49;;;;;;;;;;;10.10;99.90;;;;;;4999057;28;20352;-69
2022/06/13 08:13:17;;;;;;;;;;;10.10;99.90;;;;;;4998317;28;19929;-73
2022/06/13 08:15:44;;;;;;;;;;;10.10;99.90;;;;;;4996590;28;19906;-74
2022/06/13 08:18:12;;;;;;;;;;;10.10;99.90;;;;;;4997586;28;19905;-75
2022/06/13 08:20:40;;;;;;;;;;;10.10;99.90;;;;;;4997513;28;19906;-71
2022/06/13 08:23:11;;;;;;;;;;;10.00;99.90;;;;;;4997637;28;19906;-72
2022/06/13 08:25:39;;;;;;;;;;;10.00;99.90;;;;;;4997476;28;19952;-72
2022/06/13 08:28:06;;;;;;;;;;;10.00;99.90;;;;;;4997643;28;19913;-77
2022/06/13 08:30:43;;;;;;;;;;;10.00;99.90;;;;;;5001881;28;19936;-72
2022/06/13 08:33:09;;;;;;;;;;;9.90;99.90;;;;;;5013885;28;19909;-78
2022/06/13 08:35:37;;;;;;;;;;;9.90;99.90;;;;;;5014854;28;19912;-74
2022/06/13 08:38:04;;;;;;;;;;;9.90;99.90;;;;;;5010636;28;19905;-76
2022/06/13 08:40:37;;;;;;;;;;;9.90;99.90;;;;;;5013067;28;19910;-74
2022/06/13 08:43:27;;;;;;;;;;;9.90;99.90;;;;;;5012611;28;19988;-77
2022/06/13 08:46:14;;;;;;;;;;;9.90;99.90;;;;;;4985562;28;19909;-75
2022/06/13 08:48:44;;;;;;;;;;;9.80;99.90;;;;;;5013251;28;19975;-72
2022/06/13 08:51:13;;;;;;;;;;;9.90;99.90;;;;;;5009468;28;19936;-72
2022/06/13 08:53:48;;;;;;;;;;;9.80;99.90;;;;;;5008392;28;19906;-72
2022/06/13 08:56:17;;;;;;;;;;;9.80;99.90;;;;;;5004891;28;19984;-73
2022/06/13 08:58:54;;;;;;;;;;;9.80;99.90;;;;;;5012548;28;20358;-76
2022/06/13 09:01:27;;;;;;;;;;;9.80;99.90;;;;;;5010244;28;19913;-77
2022/06/13 09:03:56;;;;;;;;;;;9.80;99.90;;;;;;5012988;28;20290;-78
2022/06/13 09:06:33;;;;;;;;;;;9.80;99.90;;;;;;5011424;28;19944;-78
2022/06/13 09:09:13;;;;;;;;;;;9.80;99.90;;;;;;5012370;28;19906;-73
2022/06/13 09:11:54;;;;;;;;;;;9.80;99.90;;;;;;5007570;28;20015;-78
2022/06/13 09:14:46;;;;;;;;;;;9.70;99.90;;;;;;5009623;28;19906;-77
2022/06/13 09:17:19;;;;;;;;;;;9.70;99.90;;;;;;5006803;28;20323;-78
2022/06/13 09:19:49;;;;;;;;;;;9.70;99.90;;;;;;5012832;28;19945;-76
2022/06/13 09:22:25;;;;;;;;;;;9.70;99.90;;;;;;5009315;28;19909;-73
2022/06/13 09:25:21;;;;;;;;;;;9.70;99.90;;;;;;4997611;28;19910;-73
2022/06/13 09:27:56;;;;;;;;;;;9.70;99.90;;;;;;4951777;28;20290;-74
2022/06/13 09:30:24;;;;;;;;;;;9.70;99.90;;;;;;5002691;28;20378;-74
2022/06/13 09:32:53;;;;;;;;;;;9.60;99.90;;;;;;4997376;28;19963;-73
2022/06/13 09:35:22;;;;;;;;;;;9.60;99.90;;;;;;4998912;28;19945;-73
2022/06/13 09:37:49;;;;;;;;;;;9.60;99.90;;;;;;4996894;28;19914;-74
2022/06/13 09:40:25;;;;;;;;;;;9.60;99.90;;;;;;5013958;28;20254;-73
2022/06/13 09:43:01;;;;;;;;;;;9.50;99.90;;;;;;5015033;28;19964;-74
2022/06/13 09:45:36;;;;;;;;;;;9.50;99.90;;;;;;5014437;28;19972;-72
2022/06/13 09:48:09;;;;;;;;;;;9.50;99.90;;;;;;5014942;28;20428;-72
2022/06/13 09:50:43;;;;;;;;;;;9.50;99.90;;;;;;5013529;28;19909;-72
2022/06/13 09:53:26;;;;;;;;;;;9.50;99.90;;;;;;5014946;28;19917;-74
2022/06/13 09:55:56;;;;;;;;;;;9.50;99.90;;;;;;5014877;28;19913;-74
2022/06/13 09:58:25;;;;;;;;;;;9.50;99.90;;;;;;5014778;28;19952;-74
2022/06/13 10:00:52;;;;;;;;;;;9.40;99.90;;;;;;5014854;28;19909;-73
2022/06/13 10:03:32;;;;;;;;;;;9.50;99.90;;;;;;5014752;28;20293;-73
2022/06/13 10:06:05;;;;;;;;;;;9.50;99.90;;;;;;5013883;28;19925;-78
2022/06/13 10:08:38;;;;;;;;;;;9.50;99.90;;;;;;5014732;28;19905;-72
2022/06/13 10:11:14;;;;;;;;;;;9.50;99.90;;;;;;5014518;28;19967;-72
2022/06/13 10:13:51;;;;;;;;;;;9.50;99.90;;;;;;5014572;28;19992;-72
2022/06/13 10:16:43;;;;;;;;;;;9.40;99.90;;;;;;5014778;28;20004;-73
2022/06/13 10:19:23;;;;;;;;;;;9.40;99.90;;;;;;5011129;28;19995;-74
2022/06/13 10:21:59;;;;;;;;;;;9.40;99.90;;;;;;5007634;28;19993;-72
2022/06/13 10:24:31;;;;;;;;;;;9.40;99.90;;;;;;5011289;28;19909;-74
2022/06/13 10:26:58;;;;;;;;;;;9.40;99.90;;;;;;5011342;28;19909;-73
2022/06/13 10:29:31;;;;;;;;;;;9.40;99.90;;;;;;5009207;28;19910;-76
2022/06/13 10:31:57;;;;;;;;;;;9.40;99.90;;;;;;5011192;28;19913;-72
2022/06/13 10:34:29;;;;;;;;;;;9.40;99.90;;;;;;5010267;28;19906;-79
2022/06/13 10:37:07;;;;;;;;;;;9.40;99.90;;;;;;5012125;28;19928;-73
2022/06/13 10:39:34;;;;;;;;;;;9.40;99.90;;;;;;5013167;28;20000;-76
2022/06/13 10:42:09;;;;;;;;;;;9.40;99.90;;;;;;5014163;28;19951;-73
2022/06/13 10:44:37;;;;;;;;;;;9.40;99.90;;;;;;5014185;28;20235;-72
2022/06/13 10:47:27;;;;;;;;;;;9.30;99.90;;;;;;5013693;28;19920;-77
2022/06/13 10:50:00;;;;;;;;;;;9.30;99.90;;;;;;5008416;28;20317;-75
2022/06/13 10:52:31;;;;;;;;;;;9.20;99.90;;;;;;5012860;28;19956;-73
2022/06/13 10:55:03;;;;;;;;;;;9.20;99.90;;;;;;5013742;28;19910;-75
2022/06/13 10:57:32;;;;;;;;;;;9.20;99.90;;;;;;5014110;28;19906;-73
2022/06/13 11:00:10;;;;;;;;;;;9.20;99.90;;;;;;5013943;28;19952;-74
2022/06/13 11:02:37;;;;;;;;;;;9.10;99.90;;;;;;5013881;28;19913;-73
2022/06/13 11:05:10;;;;;;;;;;;9.10;99.90;;;;;;5013658;28;19996;-73
2022/06/13 11:07:48;;;;;;;;;;;9.00;99.90;;;;;;5013938;28;19948;-75
2022/06/13 11:10:38;;;;;;;;;;;9.00;99.90;;;;;;5013875;28;19909;-74
2022/06/13 11:13:06;;;;;;;;;;;8.90;99.90;;;;;;5008493;28;19909;-75
2022/06/13 11:24:11;;;;;;;;;;;8.90;99.90;;;;;;5012753;28;19998;-73
2022/06/13 11:29:26;;;;;;;;;;;9.00;99.90;;;;;;5014563;28;19912;-77
2022/06/13 11:32:00;;;;;;;;;;;9.00;99.90;;;;;;5003704;28;20422;-76
2022/06/13 11:34:33;;;;;;;;;;;9.00;99.90;;;;;;4992654;28;19909;-74
2022/06/13 11:37:17;;;;;;;;;;;9.00;99.90;;;;;;5005123;28;19921;-76
2022/06/13 11:39:46;;;;;;;;;;;9.00;99.90;;;;;;4996126;28;19906;-75
2022/06/13 11:42:18;;;;;;;;;;;9.00;99.90;;;;;;5007105;28;19913;-74
2022/06/13 11:45:05;;;;;;;;;;;9.00;99.90;;;;;;4998765;28;20373;-70
2022/06/13 11:47:42;;;;;;;;;;;9.00;99.90;;;;;;4992569;28;19910;-73
2022/06/13 11:50:26;;;;;;;;;;;9.00;99.90;;;;;;4998206;28;19909;-73
2022/06/13 11:56:00;;;;;;;;;;;8.90;99.90;;;;;;4995947;28;19916;-73
2022/06/13 11:58:32;;;;;;;;;;;8.90;99.90;;;;;;5000040;28;19906;-72
2022/06/13 12:01:21;;;;;;;;;;;8.90;99.90;;;;;;5004898;28;19916;-77
2022/06/13 12:03:58;;;;;;;;;;;8.90;99.90;;;;;;5001955;28;20273;-74
2022/06/13 12:06:25;;;;;;;;;;;8.80;99.90;;;;;;4999028;28;19929;-76
2022/06/13 12:09:01;;;;;;;;;;;8.80;99.90;;;;;;4992260;28;19914;-76
2022/06/13 12:11:28;;;;;;;;;;;8.70;99.90;;;;;;4997666;28;19914;-74
2022/06/13 12:13:58;;;;;;;;;;;8.70;99.90;;;;;;5010739;28;19909;-75
2022/06/13 12:16:46;;;;;;;;;;;8.70;99.90;;;;;;4993809;28;19949;-75
2022/06/13 12:19:13;;;;;;;;;;;8.60;99.90;;;;;;4999551;28;20358;-72
2022/06/13 12:21:40;;;;;;;;;;;8.50;99.90;;;;;;5009946;28;20471;-74
2022/06/13 12:24:18;;;;;;;;;;;8.50;99.90;;;;;;5004069;28;19975;-75
2022/06/13 12:27:02;;;;;;;;;;;8.50;99.90;;;;;;5008816;28;19928;-74
2022/06/13 12:29:47;;;;;;;;;;;8.40;99.90;;;;;;5003351;28;20266;-75
2022/06/13 12:32:19;;;;;;;;;;;8.40;99.90;;;;;;5010492;28;20270;-72
2022/06/13 12:34:49;;;;;;;;;;;8.40;99.90;;;;;;5009990;28;20046;-77
2022/06/13 12:37:15;;;;;;;;;;;8.40;99.90;;;;;;5012808;28;19905;-76
2022/06/13 12:39:49;;;;;;;;;;;8.30;99.90;;;;;;5006769;28;19906;-76
2022/06/13 12:42:37;;;;;;;;;;;8.30;99.90;;;;;;5020908;28;20274;-73
2022/06/13 12:45:20;;;;;;;;;;;8.30;99.90;;;;;;5006755;28;20002;-73
2022/06/13 12:48:09;;;;;;;;;;;8.30;99.90;;;;;;5006183;28;19956;-73
2022/06/13 12:50:56;;;;;;;;;;;8.30;99.90;;;;;;5005541;28;19996;-73
2022/06/13 12:53:40;;;;;;;;;;;8.20;99.90;;;;;;5002474;28;19905;-72
2022/06/13 12:56:25;;;;;;;;;;;8.20;99.90;;;;;;5006984;28;20336;-72
2022/06/13 12:59:01;;;;;;;;;;;8.20;99.90;;;;;;5007178;28;19906;-73
2022/06/13 13:01:34;;;;;;;;;;;8.10;99.90;;;;;;5007194;28;19916;-73
2022/06/13 13:04:07;;;;;;;;;;;8.10;99.90;;;;;;5006010;28;19945;-73
2022/06/13 13:07:12;;;;;;;;;;;8.10;99.90;;;;;;5004816;28;20333;-73
2022/06/13 13:09:54;;;;;;;;;;;8.10;99.90;;;;;;4949029;28;19910;-75
2022/06/13 13:12:55;;;;;;;;;;;8.10;99.90;;;;;;4964794;28;19954;-75
2022/06/13 13:15:22;;;;;;;;;;;8.10;99.90;;;;;;4943775;29;19993;-71
2022/06/13 13:18:15;;;;;;;;;;;8.10;99.90;;;;;;4995903;28;19959;-73
2022/06/13 13:20:42;;;;;;;;;;;8.10;99.90;;;;;;5005881;28;19996;-75
2022/06/13 13:23:30;;;;;;;;;;;8.10;99.90;;;;;;5004205;28;20405;-74
2022/06/13 13:26:08;;;;;;;;;;;8.10;99.90;;;;;;5004553;28;19921;-74
2022/06/13 13:28:37;;;;;;;;;;;8.10;99.90;;;;;;5004756;28;19906;-73
2022/06/13 13:31:22;;;;;;;;;;;8.10;99.90;;;;;;5005016;28;19914;-72
2022/06/13 13:33:55;;;;;;;;;;;8.10;99.90;;;;;;5006462;28;20004;-72
2022/06/13 13:36:22;;;;;;;;;;;8.10;99.90;;;;;;5005587;28;19906;-72
2022/06/13 13:39:01;;;;;;;;;;;8.10;99.90;;;;;;5004269;28;20367;-72
2022/06/13 13:41:40;;;;;;;;;;;8.10;99.90;;;;;;5003605;28;19941;-72
2022/06/13 13:44:07;;;;;;;;;;;8.00;99.90;;;;;;5006167;28;19910;-72
2022/06/13 13:46:51;;;;;;;;;;;8.00;99.90;;;;;;5004271;28;20367;-73
2022/06/13 13:49:24;;;;;;;;;;;8.00;99.90;;;;;;5004906;28;20000;-75
2022/06/13 13:52:13;;;;;;;;;;;7.90;99.90;;;;;;5004022;28;19997;-73
2022/06/13 13:54:47;;;;;;;;;;;7.90;99.90;;;;;;5004803;28;19952;-73
2022/06/13 13:57:24;;;;;;;;;;;7.80;99.90;;;;;;5004070;28;19905;-73
2022/06/13 13:59:52;;;;;;;;;;;7.80;99.90;;;;;;5015762;28;19905;-72
2022/06/13 14:02:34;;;;;;;;;;;7.80;99.90;;;;;;5014982;28;20338;-73
2022/06/13 14:05:07;;;;;;;;;;;7.70;99.90;;;;;;5014880;28;20342;-72
2022/06/13 14:07:37;;;;;;;;;;;7.70;99.90;;;;;;5015295;28;19939;-72
2022/06/13 14:10:05;;;;;;;;;;;7.60;99.90;;;;;;5014978;28;19936;-72
2022/06/13 14:12:32;;;;;;;;;;;7.60;99.90;;;;;;5015352;28;19909;-74
2022/06/13 14:15:02;;;;;;;;;;;7.60;99.90;;;;;;5015010;28;19916;-73
2022/06/13 14:17:30;;;;;;;;;;;7.50;99.90;;;;;;5015017;28;20389;-73
2022/06/13 14:19:58;;;;;;;;;;;7.50;99.90;;;;;;5015072;28;19912;-73
2022/06/13 14:22:26;;;;;;;;;;;7.50;99.90;;;;;;5015015;28;19912;-73
2022/06/13 14:25:08;;;;;;;;;;;7.50;99.90;;;;;;5014670;28;20281;-72
2022/06/13 14:27:49;;;;;;;;;;;7.50;99.90;;;;;;5015004;28;19996;-72
2022/06/13 14:33:06;;;;;;;;;;;7.40;99.90;;;;;;5011976;28;20376;-75
2022/06/13 14:35:56;;;;;;;;;;;7.40;99.90;;;;;;5013822;28;19948;-74
2022/06/13 14:38:26;;;;;;;;;;;7.40;99.90;;;;;;5012251;28;19909;-76
2022/06/13 14:40:57;;;;;;;;;;;7.30;99.90;;;;;;5013797;28;19906;-73
2022/06/13 14:43:34;;;;;;;;;;;7.40;99.90;;;;;;5013361;28;19910;-75
2022/06/13 14:46:05;;;;;;;;;;;7.30;99.90;;;;;;5013001;28;19913;-73
2022/06/13 14:48:38;;;;;;;;;;;7.30;99.90;;;;;;5013288;28;19963;-73
2022/06/13 14:51:14;;;;;;;;;;;7.30;99.90;;;;;;5014308;28;19916;-72
2022/06/13 14:53:58;;;;;;;;;;;7.20;99.90;;;;;;5014648;28;19905;-73
2022/06/13 14:56:32;;;;;;;;;;;7.20;99.90;;;;;;5014473;28;19912;-72
2022/06/13 14:59:00;;;;;;;;;;;7.20;99.90;;;;;;5014314;28;19992;-72
2022/06/13 15:01:36;;;;;;;;;;;7.20;99.90;;;;;;5014366;28;19912;-74
2022/06/13 15:04:03;;;;;;;;;;;7.20;99.90;;;;;;5014305;28;19919;-76
2022/06/13 15:06:33;;;;;;;;;;;7.20;99.90;;;;;;5014111;28;19971;-73
2022/06/13 15:09:04;;;;;;;;;;;7.20;99.90;;;;;;5014349;28;19913;-73
2022/06/13 15:11:32;;;;;;;;;;;7.20;99.90;;;;;;5014695;28;19964;-73
2022/06/13 15:14:00;;;;;;;;;;;7.20;99.90;;;;;;5013998;28;19951;-74
2022/06/13 15:16:34;;;;;;;;;;;7.20;99.90;;;;;;5014129;28;19906;-73
2022/06/13 15:19:03;;;;;;;;;;;7.20;99.90;;;;;;5014093;28;19913;-72
2022/06/13 15:21:32;;;;;;;;;;;7.20;99.90;;;;;;5014042;28;20314;-74
2022/06/13 15:24:01;;;;;;;;;;;7.20;99.90;;;;;;5014008;28;19951;-76